Time;durP1;ratioP1;P1;durP2;ratioP2;P2;SDS_P1;SDS_P2;PMS_P1;PMS_P2;Temp;Humidity;BMP_temperature;BMP_pressure;BME280_temperature;BME280_humidity;BME280_pressure;Samples;Min_cycle;Max_cycle;Signal;HPM_P1;HPM_P2
2022/09/30 00:01:26;;;;;;;16.75;3.15;;;21.90;99.90;;;;;;5021302;28;20245;-68
2022/09/30 00:03:54;;;;;;;16.75;3.38;;;21.90;99.90;;;;;;4984440;28;20303;-68
2022/09/30 00:06:22;;;;;;;13.15;2.92;;;21.80;99.90;;;;;;5015123;28;20220;-68
2022/09/30 00:08:56;;;;;;;16.98;3.00;;;21.90;99.90;;;;;;5010896;28;20801;-68
2022/09/30 00:11:27;;;;;;;13.95;2.67;;;21.90;99.90;;;;;;5011517;28;20200;-68
2022/09/30 00:13:57;;;;;;;11.45;3.05;;;21.90;99.90;;;;;;5010487;28;20658;-68
2022/09/30 00:16:27;;;;;;;10.10;3.00;;;21.90;99.90;;;;;;4992627;28;20619;-68
2022/09/30 00:18:57;;;;;;;13.80;2.53;;;21.90;99.90;;;;;;4992626;28;20192;-68
2022/09/30 00:21:24;;;;;;;16.30;3.30;;;21.90;99.90;;;;;;5001675;28;20280;-68
2022/09/30 00:23:50;;;;;;;23.80;2.93;;;21.90;99.90;;;;;;5010445;28;20279;-68
2022/09/30 00:26:21;;;;;;;18.52;3.17;;;21.90;99.90;;;;;;5004599;28;21034;-68
2022/09/30 00:28:53;;;;;;;9.63;2.60;;;21.90;99.90;;;;;;5009518;28;20212;-68
2022/09/30 00:31:22;;;;;;;11.65;2.45;;;21.90;99.90;;;;;;5014576;28;20200;-68
2022/09/30 00:34:06;;;;;;;26.20;3.13;;;21.90;99.90;;;;;;5021826;28;20189;-68
2022/09/30 00:36:44;;;;;;;17.48;3.60;;;22.00;99.90;;;;;;5008901;28;20189;-68
2022/09/30 00:39:23;;;;;;;18.45;2.72;;;22.00;99.90;;;;;;5013981;28;20188;-68
2022/09/30 00:41:56;;;;;;;19.90;3.10;;;22.00;99.90;;;;;;5006984;28;20267;-68
2022/09/30 00:45:04;;;;;;;15.45;3.25;;;22.00;99.90;;;;;;5015870;28;20196;-68
2022/09/30 00:47:44;;;;;;;18.98;3.30;;;22.00;99.90;;;;;;5010474;28;20205;-67
2022/09/30 00:50:19;;;;;;;13.00;3.07;;;22.00;99.90;;;;;;4992630;28;20203;-68
2022/09/30 00:52:54;;;;;;;18.58;2.90;;;22.00;99.90;;;;;;4997419;28;20251;-68
2022/09/30 00:56:07;;;;;;;12.52;2.47;;;22.00;99.90;;;;;;5007292;28;20274;-68
2022/09/30 00:58:43;;;;;;;17.20;3.20;;;22.00;99.90;;;;;;5020188;28;20651;-68
2022/09/30 01:01:10;;;;;;;15.07;3.22;;;22.00;99.90;;;;;;4998706;28;20203;-68
2022/09/30 01:03:44;;;;;;;10.67;2.80;;;22.00;99.90;;;;;;5009697;28;20197;-68
2022/09/30 01:06:10;;;;;;;13.97;2.47;;;22.00;99.90;;;;;;5020801;28;20204;-68
2022/09/30 01:08:39;;;;;;;13.75;2.63;;;22.00;99.90;;;;;;5016598;28;20320;-68
2022/09/30 01:11:06;;;;;;;17.27;2.92;;;22.00;99.90;;;;;;5008844;28;20192;-68
2022/09/30 01:13:37;;;;;;;14.85;2.80;;;22.00;99.90;;;;;;5001083;28;20192;-68
2022/09/30 01:17:02;;;;;;;11.50;2.63;;;22.00;99.90;;;;;;5008910;28;20331;-68
2022/09/30 01:19:46;;;;;;;12.65;2.67;;;22.00;99.90;;;;;;4990874;28;20193;-68
2022/09/30 01:22:52;;;;;;;16.23;2.17;;;21.90;99.90;;;;;;5008717;28;20994;-68
2022/09/30 01:25:51;;;;;;;11.88;3.20;;;21.90;99.90;;;;;;5007150;28;20189;-68
2022/09/30 01:29:07;;;;;;;9.53;2.50;;;22.00;99.90;;;;;;5010090;28;20296;-68
2022/09/30 01:32:06;;;;;;;14.02;2.75;;;21.90;99.90;;;;;;5008700;28;20205;-68
2022/09/30 01:35:07;;;;;;;12.50;2.58;;;21.90;99.90;;;;;;5009919;28;20195;-68
2022/09/30 01:37:48;;;;;;;13.27;2.83;;;21.90;99.90;;;;;;5015583;28;20204;-68
2022/09/30 01:41:13;;;;;;;12.77;2.42;;;21.90;99.90;;;;;;5008068;28;20247;-68
2022/09/30 01:43:48;;;;;;;19.15;3.22;;;21.90;99.90;;;;;;5009885;28;20197;-68
2022/09/30 01:46:43;;;;;;;15.63;3.40;;;21.90;99.90;;;;;;5008487;28;20192;-68
2022/09/30 01:49:21;;;;;;;14.35;2.72;;;22.00;99.90;;;;;;5012073;28;20213;-68
2022/09/30 01:51:58;;;;;;;13.90;2.42;;;22.00;99.90;;;;;;5009943;28;20191;-68
2022/09/30 01:54:42;;;;;;;21.60;3.17;;;22.00;99.90;;;;;;5002110;28;20189;-68
2022/09/30 01:57:26;;;;;;;16.80;2.88;;;22.00;99.90;;;;;;5020514;28;20642;-68
2022/09/30 02:00:06;;;;;;;16.47;3.03;;;22.10;99.90;;;;;;5024346;28;20193;-68
2022/09/30 02:02:41;;;;;;;17.90;3.03;;;22.10;99.90;;;;;;5003832;28;20184;-68
2022/09/30 02:05:13;;;;;;;21.10;3.20;;;22.00;99.90;;;;;;4996517;28;20196;-68
2022/09/30 02:07:53;;;;;;;13.75;2.67;;;22.00;99.90;;;;;;5004995;28;20208;-68
2022/09/30 02:10:29;;;;;;;13.55;2.70;;;22.00;99.90;;;;;;5027930;28;20278;-68
2022/09/30 02:13:05;;;;;;;15.68;3.00;;;22.00;99.90;;;;;;5011729;28;20331;-68
2022/09/30 02:15:40;;;;;;;15.52;2.80;;;22.00;99.90;;;;;;5012966;28;20917;-68
2022/09/30 02:18:30;;;;;;;17.90;3.33;;;22.00;99.90;;;;;;5013840;28;20538;-68
2022/09/30 02:21:02;;;;;;;15.68;2.58;;;22.00;99.90;;;;;;5007595;28;20288;-65
2022/09/30 02:23:40;;;;;;;18.45;2.85;;;22.00;99.90;;;;;;4994981;28;20200;-66
2022/09/30 02:26:20;;;;;;;10.15;2.42;;;22.00;99.90;;;;;;5012558;28;20188;-68
2022/09/30 02:29:00;;;;;;;18.05;3.38;;;22.00;99.90;;;;;;5017590;28;20220;-66
2022/09/30 02:31:34;;;;;;;12.98;2.97;;;21.90;99.90;;;;;;5012928;28;20243;-66
2022/09/30 02:34:13;;;;;;;14.75;3.05;;;21.90;99.90;;;;;;5027764;28;20231;-66
2022/09/30 02:36:49;;;;;;;19.33;2.70;;;21.90;99.90;;;;;;4992345;28;20602;-68
2022/09/30 02:39:28;;;;;;;12.63;2.50;;;21.90;99.90;;;;;;5011388;28;20188;-66
2022/09/30 02:42:09;;;;;;;17.53;3.00;;;21.90;99.90;;;;;;5009374;28;20224;-68
2022/09/30 02:44:37;;;;;;;13.40;2.90;;;21.80;99.90;;;;;;5012353;28;20193;-68
2022/09/30 02:47:33;;;;;;;9.00;2.90;;;21.80;99.90;;;;;;5027636;28;20201;-65
2022/09/30 02:50:21;;;;;;;22.92;3.88;;;21.80;99.90;;;;;;4995075;28;20238;-65
2022/09/30 02:53:25;;;;;;;14.52;2.58;;;21.80;99.90;;;;;;5001585;28;20196;-65
2022/09/30 02:56:19;;;;;;;17.70;2.90;;;21.80;99.90;;;;;;5013438;28;20192;-68
2022/09/30 02:58:49;;;;;;;16.13;2.43;;;21.80;99.90;;;;;;5031472;28;20199;-68
2022/09/30 03:01:16;;;;;;;13.87;2.73;;;21.80;99.90;;;;;;5030831;28;20188;-68
2022/09/30 03:04:21;;;;;;;17.90;3.05;;;21.80;99.90;;;;;;5030026;28;20188;-65
2022/09/30 03:06:48;;;;;;;12.37;2.73;;;21.70;99.90;;;;;;4989781;28;20199;-68
2022/09/30 03:09:15;;;;;;;13.80;2.47;;;21.70;99.90;;;;;;5011794;28;20212;-68
2022/09/30 03:11:41;;;;;;;11.30;2.55;;;21.80;99.90;;;;;;5018145;28;20208;-68
2022/09/30 03:14:59;;;;;;;12.50;2.57;;;21.80;99.90;;;;;;4992719;28;20213;-66
2022/09/30 03:17:51;;;;;;;10.00;2.37;;;21.70;99.90;;;;;;4987110;28;20280;-68
2022/09/30 03:20:45;;;;;;;14.77;2.53;;;21.80;99.90;;;;;;5011333;28;20268;-68
2022/09/30 03:23:36;;;;;;;13.15;2.67;;;21.80;99.90;;;;;;5009847;28;20192;-66
2022/09/30 03:26:19;;;;;;;18.88;2.80;;;21.70;99.90;;;;;;5010025;28;20655;-66
2022/09/30 03:29:07;;;;;;;17.02;2.97;;;21.70;99.90;;;;;;5022565;28;20709;-68
2022/09/30 03:32:30;;;;;;;18.17;2.90;;;21.60;99.90;;;;;;5013268;28;20304;-68
2022/09/30 03:35:31;;;;;;;18.07;2.90;;;21.60;99.90;;;;;;4982731;28;20527;-68
2022/09/30 03:38:27;;;;;;;16.73;3.00;;;21.50;99.90;;;;;;4986733;28;20226;-68
2022/09/30 03:41:05;;;;;;;11.27;2.60;;;21.50;99.90;;;;;;5011384;28;20850;-68
2022/09/30 03:43:43;;;;;;;14.40;2.70;;;21.40;99.90;;;;;;5006364;28;20259;-68
2022/09/30 03:46:16;;;;;;;12.43;2.78;;;21.40;99.90;;;;;;5011743;28;20223;-68
2022/09/30 03:48:49;;;;;;;17.27;3.50;;;21.40;99.90;;;;;;5010461;28;20308;-68
2022/09/30 03:51:16;;;;;;;16.35;3.20;;;21.30;99.90;;;;;;5014569;28;20184;-68
2022/09/30 03:53:45;;;;;;;16.63;2.40;;;21.30;99.90;;;;;;5010832;28;20188;-68
2022/09/30 03:56:12;;;;;;;14.23;3.17;;;21.30;99.90;;;;;;5009357;28;20708;-68
2022/09/30 03:58:43;;;;;;;13.20;2.80;;;21.30;99.90;;;;;;5001006;28;20192;-68
2022/09/30 04:01:20;;;;;;;17.13;3.20;;;21.30;99.90;;;;;;5010055;28;20200;-68
2022/09/30 04:03:51;;;;;;;14.40;3.27;;;21.30;99.90;;;;;;5010467;28;20224;-68
2022/09/30 04:06:22;;;;;;;15.20;3.57;;;21.30;99.90;;;;;;5005755;28;20193;-68
2022/09/30 04:08:50;;;;;;;14.82;2.67;;;21.30;99.90;;;;;;4986219;28;20220;-68
2022/09/30 04:11:16;;;;;;;9.50;2.57;;;21.30;99.90;;;;;;5001980;28;20662;-68
2022/09/30 04:13:43;;;;;;;11.13;2.53;;;21.40;99.90;;;;;;5010458;28;20177;-68
2022/09/30 04:16:09;;;;;;;21.20;2.90;;;21.40;99.90;;;;;;5009157;28;20284;-68
2022/09/30 04:18:37;;;;;;;16.17;3.03;;;21.40;99.90;;;;;;5001162;28;20185;-68
2022/09/30 04:21:10;;;;;;;20.77;3.07;;;21.40;99.90;;;;;;4992994;28;20193;-68
2022/09/30 04:23:41;;;;;;;14.73;2.80;;;21.40;99.90;;;;;;4981769;28;20243;-68
2022/09/30 04:26:13;;;;;;;10.73;2.47;;;21.40;99.90;;;;;;5013623;28;20611;-66
2022/09/30 04:28:39;;;;;;;17.30;3.03;;;21.50;99.90;;;;;;5009052;28;20216;-65
2022/09/30 04:31:06;;;;;;;12.17;2.30;;;21.50;99.90;;;;;;5010611;28;20188;-68
2022/09/30 04:33:33;;;;;;;16.37;2.93;;;21.50;99.90;;;;;;5010577;28;20215;-68
2022/09/30 04:36:04;;;;;;;14.73;2.47;;;21.50;99.90;;;;;;5006206;28;20200;-68
2022/09/30 04:38:30;;;;;;;13.27;2.73;;;21.60;99.90;;;;;;5010597;28;20189;-67
2022/09/30 04:40:59;;;;;;;20.50;2.80;;;21.50;99.90;;;;;;5002906;28;20201;-68
2022/09/30 04:43:27;;;;;;;11.80;2.97;;;21.60;99.90;;;;;;5011489;28;20211;-68
2022/09/30 04:45:54;;;;;;;15.97;3.00;;;21.60;99.90;;;;;;5009998;28;20682;-68
2022/09/30 04:48:24;;;;;;;15.87;3.10;;;21.60;99.90;;;;;;5005552;28;20277;-67
2022/09/30 04:50:50;;;;;;;17.90;3.00;;;21.60;99.90;;;;;;5010381;28;20288;-68
2022/09/30 04:53:17;;;;;;;26.17;2.80;;;21.60;99.90;;;;;;5010382;28;20228;-67
2022/09/30 04:55:45;;;;;;;10.27;2.37;;;21.70;99.90;;;;;;5010347;28;20200;-68
2022/09/30 04:58:12;;;;;;;9.77;2.30;;;21.70;99.90;;;;;;5012979;28;20217;-68
2022/09/30 05:00:38;;;;;;;21.13;3.13;;;21.80;99.90;;;;;;5019046;28;20959;-67
2022/09/30 05:03:05;;;;;;;12.13;2.40;;;21.80;99.90;;;;;;5020379;28;20192;-68
2022/09/30 05:05:33;;;;;;;10.27;2.43;;;21.80;99.90;;;;;;5013695;28;20196;-68
2022/09/30 05:08:03;;;;;;;18.27;3.10;;;21.90;99.90;;;;;;5008652;28;20213;-68
2022/09/30 05:10:30;;;;;;;16.05;2.60;;;22.00;99.90;;;;;;5006008;28;20189;-68
2022/09/30 05:12:57;;;;;;;19.02;3.00;;;22.10;99.90;;;;;;4991073;28;20229;-68
2022/09/30 05:15:24;;;;;;;14.73;2.70;;;22.10;99.90;;;;;;4991863;28;20192;-68
2022/09/30 05:17:52;;;;;;;15.00;3.03;;;22.10;99.90;;;;;;4997609;28;20219;-67
2022/09/30 05:20:19;;;;;;;12.68;2.55;;;22.20;99.90;;;;;;5009635;28;20582;-68
2022/09/30 05:22:46;;;;;;;10.98;2.72;;;22.20;99.90;;;;;;5009932;28;20185;-68
2022/09/30 05:25:12;;;;;;;14.70;2.60;;;22.30;99.90;;;;;;5019363;28;20196;-68
2022/09/30 05:27:38;;;;;;;10.55;2.35;;;22.40;99.90;;;;;;5003893;28;20724;-68
2022/09/30 05:30:08;;;;;;;10.80;2.87;;;22.40;99.90;;;;;;5026977;28;20193;-68
2022/09/30 05:32:34;;;;;;;19.02;3.08;;;22.50;99.90;;;;;;5006938;28;20250;-68
2022/09/30 05:35:02;;;;;;;11.93;2.70;;;22.50;99.90;;;;;;5022203;28;20219;-68
2022/09/30 05:37:28;;;;;;;13.40;2.75;;;22.60;99.90;;;;;;5015397;28;20181;-68
2022/09/30 05:39:54;;;;;;;10.75;2.63;;;22.60;99.90;;;;;;4995644;28;20257;-68
2022/09/30 05:42:59;;;;;;;9.73;2.80;;;22.70;99.90;;;;;;4997547;28;20185;-68
2022/09/30 05:45:26;;;;;;;12.88;2.50;;;22.70;99.90;;;;;;5005631;28;20206;-68
2022/09/30 05:47:56;;;;;;;17.55;3.13;;;22.80;99.90;;;;;;5013508;28;20686;-68
2022/09/30 05:50:24;;;;;;;13.38;2.78;;;22.80;99.90;;;;;;5013621;28;20647;-68
2022/09/30 05:52:51;;;;;;;11.48;2.78;;;22.90;99.90;;;;;;5012595;28;20185;-68
2022/09/30 05:55:21;;;;;;;8.80;2.45;;;22.90;99.90;;;;;;5011110;28;20217;-68
2022/09/30 05:57:50;;;;;;;18.23;2.80;;;23.00;99.90;;;;;;5011126;28;20268;-68
2022/09/30 06:00:19;;;;;;;14.30;2.88;;;23.10;99.90;;;;;;5011454;28;20189;-68
2022/09/30 06:02:45;;;;;;;16.02;2.80;;;23.20;99.90;;;;;;5018813;28;20184;-68
2022/09/30 06:05:12;;;;;;;14.98;2.50;;;23.20;99.90;;;;;;5013064;28;20682;-68
2022/09/30 06:07:39;;;;;;;17.67;3.05;;;23.20;99.90;;;;;;5010788;28;20789;-68
2022/09/30 06:10:11;;;;;;;12.27;2.65;;;23.20;99.90;;;;;;5012827;28;20512;-68
2022/09/30 06:12:38;;;;;;;14.60;3.13;;;23.30;99.90;;;;;;5012452;28;20181;-68
2022/09/30 06:15:06;;;;;;;20.42;2.88;;;23.30;99.90;;;;;;5019548;28;20271;-68
2022/09/30 06:17:33;;;;;;;15.00;2.80;;;23.30;99.90;;;;;;4994060;28;20185;-68
2022/09/30 06:20:00;;;;;;;14.68;2.75;;;23.40;99.90;;;;;;5007567;28;20251;-68
2022/09/30 06:22:26;;;;;;;15.77;2.88;;;23.40;99.90;;;;;;5012464;28;20181;-68
2022/09/30 06:24:53;;;;;;;17.67;2.70;;;23.50;99.90;;;;;;5006144;28;20567;-68
2022/09/30 06:27:20;;;;;;;16.33;3.42;;;23.50;99.90;;;;;;4994596;28;20199;-68
2022/09/30 06:29:47;;;;;;;17.92;3.03;;;23.60;99.90;;;;;;5011290;28;20276;-68
2022/09/30 06:32:13;;;;;;;18.45;3.15;;;23.70;99.90;;;;;;5024945;28;20196;-68
2022/09/30 06:34:40;;;;;;;13.63;2.85;;;23.80;99.90;;;;;;4988074;28;20181;-68
2022/09/30 06:37:06;;;;;;;22.05;2.72;;;23.90;99.90;;;;;;4998441;28;20705;-68
2022/09/30 06:39:32;;;;;;;17.90;3.20;;;24.10;99.90;;;;;;4991107;28;20643;-68
2022/09/30 06:41:58;;;;;;;14.30;2.75;;;24.20;99.90;;;;;;5012977;28;20448;-68
2022/09/30 06:44:24;;;;;;;13.27;2.78;;;24.20;99.90;;;;;;5016391;28;20192;-68
2022/09/30 06:46:54;;;;;;;11.90;2.67;;;24.30;99.90;;;;;;5011026;28;20184;-68
2022/09/30 06:49:21;;;;;;;18.30;3.03;;;24.50;99.90;;;;;;5013215;28;20319;-68
2022/09/30 06:51:50;;;;;;;26.33;3.55;;;24.50;99.90;;;;;;5010981;28;20213;-68
2022/09/30 06:54:18;;;;;;;19.15;4.13;;;24.70;99.90;;;;;;4983579;28;20193;-68
2022/09/30 06:56:46;;;;;;;18.13;3.38;;;24.80;99.90;;;;;;5012154;28;20293;-68
2022/09/30 06:59:15;;;;;;;12.75;2.50;;;24.90;99.90;;;;;;4997385;28;20196;-68
2022/09/30 07:01:43;;;;;;;27.42;3.70;;;25.10;99.90;;;;;;5004685;28;20196;-68
2022/09/30 07:04:11;;;;;;;12.75;3.30;;;25.40;99.90;;;;;;5005560;28;20204;-68
2022/09/30 07:06:38;;;;;;;17.50;3.10;;;25.40;99.90;;;;;;5010447;28;20177;-68
2022/09/30 07:09:09;;;;;;;21.90;3.20;;;25.40;99.90;;;;;;5014354;28;20211;-68
2022/09/30 07:11:36;;;;;;;20.73;3.20;;;25.40;99.90;;;;;;5002550;28;20207;-68
2022/09/30 07:14:07;;;;;;;19.85;3.53;;;25.50;99.90;;;;;;5010189;28;20237;-68
2022/09/30 07:16:34;;;;;;;21.35;2.72;;;25.60;99.90;;;;;;5000048;28;20188;-68
2022/09/30 07:19:03;;;;;;;18.20;2.70;;;25.70;99.90;;;;;;5010124;28;20196;-68
2022/09/30 07:21:30;;;;;;;26.15;3.80;;;25.80;99.90;;;;;;5002146;28;20212;-68
2022/09/30 07:23:58;;;;;;;13.93;3.17;;;25.80;99.90;;;;;;4998769;28;20208;-68
2022/09/30 07:26:26;;;;;;;16.70;3.33;;;26.00;99.90;;;;;;4995263;28;20181;-68
2022/09/30 07:28:53;;;;;;;16.13;3.22;;;26.10;99.90;;;;;;5011491;28;20613;-68
2022/09/30 07:31:25;;;;;;;13.45;3.05;;;26.10;99.90;;;;;;5007102;28;20190;-68
2022/09/30 07:33:51;;;;;;;19.70;3.55;;;26.20;99.90;;;;;;5009147;28;20193;-68
2022/09/30 07:36:28;;;;;;;11.43;2.97;;;26.30;99.90;;;;;;5011212;28;20256;-68
2022/09/30 07:38:56;;;;;;;15.48;3.28;;;26.40;99.90;;;;;;5009006;28;20180;-68
2022/09/30 07:41:27;;;;;;;18.23;3.53;;;26.30;99.90;;;;;;5011184;28;20196;-67
2022/09/30 07:44:00;;;;;;;19.13;3.97;;;26.50;99.90;;;;;;5002227;28;20207;-68
2022/09/30 07:46:31;;;;;;;20.90;3.80;;;26.50;99.90;;;;;;4993004;28;20184;-68
2022/09/30 07:49:02;;;;;;;15.27;2.88;;;26.50;99.90;;;;;;5004305;28;20213;-66
2022/09/30 07:51:33;;;;;;;15.77;2.88;;;26.60;99.90;;;;;;4974906;28;20777;-66
2022/09/30 07:54:07;;;;;;;16.42;3.00;;;26.70;99.90;;;;;;4989576;28;20222;-66
2022/09/30 07:56:37;;;;;;;12.25;3.28;;;26.70;99.90;;;;;;4994860;28;20638;-67
2022/09/30 07:59:07;;;;;;;13.63;2.85;;;26.80;99.90;;;;;;4992750;28;20258;-66
2022/09/30 08:01:36;;;;;;;14.98;3.72;;;26.90;99.90;;;;;;4989030;28;20203;-67
2022/09/30 08:04:06;;;;;;;17.90;3.20;;;27.00;99.90;;;;;;5008533;28;20197;-67
2022/09/30 08:06:44;;;;;;;16.17;3.30;;;27.10;99.90;;;;;;5010266;28;20215;-67
2022/09/30 08:09:12;;;;;;;19.75;3.40;;;27.10;99.90;;;;;;4990305;28;20728;-67
2022/09/30 08:11:40;;;;;;;12.82;3.63;;;27.40;99.90;;;;;;5004478;28;20196;-67
2022/09/30 08:14:06;;;;;;;27.25;3.80;;;27.50;99.90;;;;;;5011416;28;20702;-67
2022/09/30 08:16:33;;;;;;;14.55;2.95;;;27.60;99.90;;;;;;4973330;28;20203;-67
2022/09/30 08:19:01;;;;;;;19.63;3.25;;;27.70;99.90;;;;;;4967238;28;20614;-68
2022/09/30 08:21:29;;;;;;;17.50;4.03;;;27.80;99.90;;;;;;4997175;28;20681;-68
2022/09/30 08:23:57;;;;;;;17.73;3.50;;;27.70;99.90;;;;;;5019320;28;20987;-67
2022/09/30 08:26:24;;;;;;;18.02;3.45;;;27.80;99.90;;;;;;4985563;28;20714;-67
2022/09/30 08:28:51;;;;;;;15.35;2.65;;;27.80;99.90;;;;;;5005035;28;20228;-67
2022/09/30 08:31:21;;;;;;;19.17;3.35;;;27.70;99.90;;;;;;4998946;28;20659;-67
2022/09/30 08:33:48;;;;;;;15.38;3.13;;;27.80;99.90;;;;;;5007743;28;20890;-67
2022/09/30 08:36:26;;;;;;;19.55;3.63;;;27.90;99.90;;;;;;4992723;28;20193;-67
2022/09/30 08:38:54;;;;;;;22.92;3.03;;;28.00;99.90;;;;;;5013316;28;20195;-67
2022/09/30 08:41:51;;;;;;;12.85;3.38;;;28.20;99.90;;;;;;5017463;28;20231;-67
2022/09/30 08:44:46;;;;;;;25.70;3.58;;;28.10;99.90;;;;;;4994702;28;20597;-67
2022/09/30 08:47:44;;;;;;;13.57;3.20;;;28.10;99.90;;;;;;4982342;28;20196;-66
2022/09/30 08:51:31;;;;;;;18.30;3.17;;;28.40;99.90;;;;;;5007992;28;20322;-67
2022/09/30 08:54:01;;;;;;;11.57;3.00;;;28.50;99.90;;;;;;4894998;29;20196;-66
2022/09/30 08:56:33;;;;;;;16.33;3.08;;;28.50;99.90;;;;;;4912695;29;20192;-67
2022/09/30 08:59:17;;;;;;;16.75;3.28;;;28.60;99.90;;;;;;4964333;28;20539;-68
2022/09/30 09:01:52;;;;;;;23.90;3.45;;;28.70;99.90;;;;;;4981892;28;20271;-67
2022/09/30 09:04:19;;;;;;;19.20;3.15;;;28.80;99.90;;;;;;4975008;28;20201;-67
2022/09/30 09:06:54;;;;;;;11.32;2.80;;;28.80;99.90;;;;;;4989492;28;20183;-67
2022/09/30 09:10:05;;;;;;;12.55;3.00;;;28.80;99.90;;;;;;5013208;28;20220;-67
2022/09/30 09:12:42;;;;;;;23.55;2.80;;;28.90;99.90;;;;;;4994050;28;20717;-67
2022/09/30 09:16:00;;;;;;;15.40;3.30;;;29.10;99.90;;;;;;4978631;28;20192;-67
2022/09/30 09:18:50;;;;;;;14.55;3.30;;;29.20;99.90;;;;;;5012330;28;20705;-67
2022/09/30 09:21:30;;;;;;;10.13;2.40;;;29.20;99.90;;;;;;5007028;28;20880;-68
2022/09/30 09:24:01;;;;;;;13.27;2.67;;;29.40;99.90;;;;;;4993584;28;20196;-67
2022/09/30 09:26:35;;;;;;;18.92;3.47;;;29.50;99.90;;;;;;5015415;28;20665;-67
2022/09/30 09:29:33;;;;;;;17.45;3.20;;;29.70;99.90;;;;;;4997787;28;20220;-67
2022/09/30 09:32:08;;;;;;;16.30;3.13;;;29.80;99.90;;;;;;5001747;28;20185;-67
2022/09/30 09:34:34;;;;;;;18.85;3.45;;;29.90;99.90;;;;;;5010255;28;20272;-68
2022/09/30 09:40:56;;;;;;;13.05;3.42;;;30.20;99.90;;;;;;5003482;28;20235;-68
2022/09/30 09:43:47;;;;;;;21.00;3.35;;;30.30;99.90;;;;;;5024430;28;20192;-68
2022/09/30 09:47:04;;;;;;;22.75;3.55;;;30.20;99.90;;;;;;5009653;28;20196;-68
2022/09/30 09:49:36;;;;;;;15.75;3.00;;;30.30;99.90;;;;;;4979368;28;20224;-67
2022/09/30 09:52:22;;;;;;;13.20;3.08;;;30.50;99.90;;;;;;4989836;28;20220;-68
2022/09/30 09:54:55;;;;;;;22.98;3.10;;;30.50;99.90;;;;;;5013445;28;20184;-67
2022/09/30 09:57:31;;;;;;;14.52;2.88;;;30.50;99.90;;;;;;4986911;28;20242;-67
2022/09/30 10:03:14;;;;;;;11.60;3.05;;;30.90;99.90;;;;;;5007542;28;20266;-67
2022/09/30 10:05:41;;;;;;;14.30;3.17;;;31.00;99.90;;;;;;4983960;28;20180;-68
2022/09/30 10:08:20;;;;;;;21.30;3.45;;;31.20;99.90;;;;;;5007070;28;20209;-68
2022/09/30 10:10:53;;;;;;;15.18;3.60;;;31.10;99.90;;;;;;4997883;28;20658;-67
2022/09/30 10:13:22;;;;;;;21.75;3.42;;;31.10;99.90;;;;;;5002070;28;20189;-67
2022/09/30 10:15:53;;;;;;;19.50;3.22;;;31.20;99.90;;;;;;4992502;28;20204;-67
2022/09/30 10:18:41;;;;;;;16.55;3.10;;;31.30;99.90;;;;;;4984885;28;20714;-67
2022/09/30 10:21:23;;;;;;;18.52;3.65;;;31.60;99.90;;;;;;5013766;28;20193;-68
2022/09/30 10:23:50;;;;;;;15.55;2.95;;;32.80;99.90;;;;;;5012123;28;20192;-67
2022/09/30 10:26:24;;;;;;;12.68;3.10;;;33.60;99.90;;;;;;4994420;28;20224;-67
2022/09/30 10:29:05;;;;;;;20.23;3.45;;;33.00;99.90;;;;;;5018569;28;20306;-67
2022/09/30 10:31:41;;;;;;;26.23;3.00;;;32.60;99.90;;;;;;5015435;28;20212;-68
2022/09/30 10:34:35;;;;;;;24.02;3.50;;;32.30;99.90;;;;;;4989947;28;20184;-68
2022/09/30 10:37:15;;;;;;;16.48;3.15;;;32.10;99.90;;;;;;4993011;28;20200;-68
2022/09/30 10:39:50;;;;;;;20.67;2.95;;;32.00;99.90;;;;;;5011688;28;20193;-67
2022/09/30 10:42:33;;;;;;;16.95;3.42;;;32.00;99.90;;;;;;5004669;28;20721;-68
2022/09/30 10:45:23;;;;;;;12.80;2.58;;;32.10;99.90;;;;;;4997466;28;20189;-68
2022/09/30 10:47:55;;;;;;;23.52;4.07;;;33.30;99.90;;;;;;5001434;28;20251;-68
2022/09/30 10:50:26;;;;;;;18.58;3.17;;;32.50;99.90;;;;;;5009596;28;20185;-68
2022/09/30 10:53:14;;;;;;;15.13;2.85;;;31.90;99.90;;;;;;5008014;28;20676;-68
2022/09/30 10:55:44;;;;;;;15.07;3.65;;;31.50;99.90;;;;;;5008863;28;20606;-68
2022/09/30 10:58:44;;;;;;;16.63;2.70;;;31.30;99.90;;;;;;5016022;28;20189;-67
2022/09/30 11:01:42;;;;;;;16.33;3.00;;;31.30;99.90;;;;;;5005027;28;20197;-68
2022/09/30 11:04:43;;;;;;;13.93;2.58;;;31.30;99.90;;;;;;5014169;28;20194;-68
2022/09/30 11:07:29;;;;;;;17.80;2.97;;;31.30;99.90;;;;;;5008338;28;20192;-68
2022/09/30 11:10:31;;;;;;;16.27;2.97;;;31.20;99.90;;;;;;4984542;28;20898;-67
2022/09/30 11:13:37;;;;;;;25.15;3.00;;;31.20;99.90;;;;;;4995567;28;20189;-68
2022/09/30 11:16:25;;;;;;;17.92;3.22;;;31.20;99.90;;;;;;4994966;28;20182;-67
2022/09/30 11:19:29;;;;;;;18.10;3.30;;;31.20;99.90;;;;;;5003231;28;20208;-67
2022/09/30 11:22:02;;;;;;;12.45;3.30;;;31.20;99.90;;;;;;4991663;28;20193;-67
2022/09/30 11:24:45;;;;;;;23.08;3.38;;;31.20;99.90;;;;;;5006797;28;20207;-67
2022/09/30 11:27:45;;;;;;;14.00;3.72;;;31.20;99.90;;;;;;4990232;28;20221;-67
2022/09/30 11:30:30;;;;;;;17.20;3.42;;;31.20;99.90;;;;;;5016019;28;20190;-67
2022/09/30 11:33:22;;;;;;;14.52;3.47;;;31.20;99.90;;;;;;5005107;28;20551;-67
2022/09/30 11:36:04;;;;;;;11.88;2.92;;;31.20;99.90;;;;;;5009835;28;20203;-67
2022/09/30 11:39:08;;;;;;;17.77;2.83;;;31.20;99.20;;;;;;5018147;28;20180;-67
2022/09/30 11:42:15;;;;;;;16.98;3.00;;;31.20;99.10;;;;;;5004137;28;20189;-68
2022/09/30 11:44:44;;;;;;;15.20;2.97;;;31.10;98.80;;;;;;4993517;28;20661;-68
2022/09/30 11:47:50;;;;;;;23.05;3.05;;;31.20;98.20;;;;;;5010356;28;20287;-69
2022/09/30 11:50:46;;;;;;;22.35;3.28;;;31.20;98.30;;;;;;5011095;28;20188;-67
2022/09/30 11:53:41;;;;;;;21.55;3.13;;;31.10;98.10;;;;;;5010919;28;20256;-67
2022/09/30 11:56:13;;;;;;;17.67;3.17;;;31.10;98.00;;;;;;5009859;28;20274;-67
2022/09/30 11:58:49;;;;;;;15.35;3.10;;;31.10;98.00;;;;;;5013538;28;20215;-67
2022/09/30 12:01:43;;;;;;;17.40;3.47;;;31.10;98.00;;;;;;5011101;28;20188;-67
2022/09/30 12:04:31;;;;;;;17.92;3.53;;;31.00;97.60;;;;;;5012053;28;20224;-67
2022/09/30 12:07:21;;;;;;;23.63;3.50;;;31.00;97.00;;;;;;5001605;28;20180;-67
2022/09/30 12:10:17;;;;;;;21.05;3.20;;;31.10;97.00;;;;;;5012694;28;20219;-67
2022/09/30 12:12:50;;;;;;;23.35;3.40;;;31.10;97.20;;;;;;5002776;28;20177;-67
2022/09/30 12:15:22;;;;;;;22.65;3.67;;;31.00;97.10;;;;;;4992911;28;20223;-67
2022/09/30 12:18:00;;;;;;;16.13;3.25;;;31.00;96.90;;;;;;4992932;28;20646;-67
2022/09/30 12:20:52;;;;;;;24.23;3.70;;;31.00;96.50;;;;;;5009310;28;20184;-67
2022/09/30 12:23:45;;;;;;;17.50;3.42;;;31.00;96.50;;;;;;5010789;28;20658;-67
2022/09/30 12:26:14;;;;;;;18.95;3.17;;;31.00;96.50;;;;;;4991693;28;20284;-67
2022/09/30 12:32:49;;;;;;;22.02;3.55;;;31.00;96.30;;;;;;4981075;28;20706;-67
2022/09/30 12:35:43;;;;;;;23.35;3.70;;;30.90;95.80;;;;;;4939892;28;20187;-67
2022/09/30 12:38:39;;;;;;;25.83;3.22;;;30.90;95.50;;;;;;4993605;28;20200;-67
2022/09/30 12:41:24;;;;;;;20.50;3.13;;;30.90;95.40;;;;;;4991107;28;20190;-67
2022/09/30 12:44:24;;;;;;;23.30;3.42;;;30.80;95.10;;;;;;4989481;28;20204;-67
2022/09/30 12:47:24;;;;;;;24.05;3.22;;;30.80;95.40;;;;;;4987501;28;20307;-67
2022/09/30 12:49:55;;;;;;;18.65;3.38;;;30.70;95.00;;;;;;5006263;28;20602;-67
2022/09/30 12:52:22;;;;;;;24.90;3.88;;;30.70;94.80;;;;;;5009100;28;20173;-67
2022/09/30 12:55:01;;;;;;;24.50;3.42;;;30.70;94.60;;;;;;5010009;28;20177;-68
2022/09/30 12:57:35;;;;;;;23.02;3.03;;;30.70;94.80;;;;;;5010122;28;20191;-67
2022/09/30 13:00:19;;;;;;;21.35;3.67;;;30.60;94.90;;;;;;5004231;28;20193;-67
2022/09/30 13:03:17;;;;;;;22.63;3.28;;;30.60;94.40;;;;;;4985057;28;20173;-67
2022/09/30 13:05:56;;;;;;;22.38;3.65;;;30.60;94.60;;;;;;5004242;28;20228;-67
2022/09/30 13:08:39;;;;;;;21.98;3.75;;;30.60;94.10;;;;;;5008555;28;20219;-67
2022/09/30 13:11:35;;;;;;;27.63;3.78;;;30.60;94.20;;;;;;4992426;28;20216;-67
2022/09/30 13:14:42;;;;;;;23.52;3.50;;;30.60;94.30;;;;;;4992005;28;20210;-67
2022/09/30 13:17:09;;;;;;;20.85;3.35;;;30.50;93.90;;;;;;4976438;28;20188;-67
2022/09/30 13:19:40;;;;;;;22.23;3.92;;;30.40;94.60;;;;;;5009927;28;20196;-67
2022/09/30 13:22:31;;;;;;;26.10;4.28;;;30.40;94.60;;;;;;5008635;28;20268;-67
2022/09/30 13:24:57;;;;;;;30.95;4.05;;;30.30;94.00;;;;;;5008113;28;20204;-67
2022/09/30 13:27:42;;;;;;;18.13;3.50;;;30.20;94.90;;;;;;5009681;28;20188;-67
2022/09/30 13:30:14;;;;;;;15.57;3.55;;;30.20;95.30;;;;;;5007907;28;20181;-67
2022/09/30 13:33:01;;;;;;;14.75;3.40;;;30.10;95.40;;;;;;4992121;28;20718;-67
2022/09/30 13:35:39;;;;;;;14.05;2.97;;;30.00;94.90;;;;;;4977873;28;20327;-67
2022/09/30 13:38:13;;;;;;;14.98;3.30;;;30.00;94.60;;;;;;4988903;28;20337;-67
2022/09/30 13:41:15;;;;;;;19.05;3.45;;;30.00;94.20;;;;;;4998583;28;20181;-67
2022/09/30 13:44:02;;;;;;;15.23;3.08;;;29.90;94.80;;;;;;4972386;28;20204;-67